createdAt,value
2022-12-09T00:02:05.467Z,18.47
2022-12-09T00:04:37.543Z,17.07
2022-12-09T00:07:08.573Z,17.10
2022-12-09T00:09:39.901Z,17.33
2022-12-09T00:12:10.667Z,18.17
2022-12-09T00:14:41.574Z,18.10
2022-12-09T00:17:12.830Z,14.97
2022-12-09T00:19:43.539Z,16.03
2022-12-09T00:22:14.395Z,17.03
2022-12-09T00:24:45.494Z,16.47
2022-12-09T00:27:16.242Z,16.10
2022-12-09T00:29:46.905Z,15.93
2022-12-09T00:32:17.684Z,16.17
2022-12-09T00:34:49.449Z,14.63
2022-12-09T00:37:20.173Z,15.67
2022-12-09T00:39:51.091Z,16.30
2022-12-09T00:42:21.884Z,17.47
2022-12-09T00:44:52.836Z,16.23
2022-12-09T00:47:23.946Z,16.13
2022-12-09T00:49:54.760Z,14.00
2022-12-09T00:52:25.917Z,15.80
2022-12-09T00:54:56.803Z,15.90
2022-12-09T00:57:27.819Z,17.00
2022-12-09T00:59:58.748Z,14.43
2022-12-09T01:02:29.953Z,14.03
2022-12-09T01:05:00.845Z,15.83
2022-12-09T01:07:31.897Z,14.17
2022-12-09T01:10:02.596Z,15.10
2022-12-09T01:12:34.530Z,14.67
2022-12-09T01:15:06.471Z,15.20
2022-12-09T01:17:38.829Z,14.90
2022-12-09T01:20:12.539Z,15.50
2022-12-09T01:22:43.502Z,15.53
2022-12-09T01:25:14.758Z,15.27
2022-12-09T01:27:46.293Z,15.00
2022-12-09T01:30:17.784Z,15.70
2022-12-09T01:32:49.311Z,14.63
2022-12-09T01:35:20.647Z,12.43
2022-12-09T01:37:51.398Z,14.87
2022-12-09T01:40:22.075Z,16.23
2022-12-09T01:42:53.308Z,14.53
2022-12-09T01:45:43.756Z,15.37
2022-12-09T01:48:15.968Z,13.73
2022-12-09T01:50:51.049Z,14.33
2022-12-09T01:53:24.533Z,13.20
2022-12-09T01:55:57.465Z,13.13
2022-12-09T01:58:29.123Z,12.87
2022-12-09T02:01:00.012Z,12.50
2022-12-09T02:03:30.936Z,13.73
2022-12-09T02:06:01.968Z,13.23
2022-12-09T02:08:32.777Z,12.73
2022-12-09T02:11:09.042Z,12.63
2022-12-09T02:13:43.815Z,16.53
2022-12-09T02:16:17.972Z,17.67
2022-12-09T02:18:51.745Z,18.27
2022-12-09T02:21:25.637Z,16.17
2022-12-09T02:24:01.771Z,16.60
2022-12-09T02:26:35.866Z,17.83
2022-12-09T02:29:33.091Z,18.07
2022-12-09T02:32:22.402Z,18.00
2022-12-09T02:34:56.568Z,17.03
2022-12-09T02:37:31.304Z,17.63
2022-12-09T02:40:05.392Z,17.87
2022-12-09T02:42:39.538Z,16.27
2022-12-09T02:45:14.169Z,16.47
2022-12-09T02:50:29.174Z,14.83
2022-12-09T02:53:02.732Z,15.07
2022-12-09T02:55:34.882Z,16.20
2022-12-09T02:58:06.105Z,15.50
2022-12-09T03:00:36.758Z,17.67
2022-12-09T03:03:09.747Z,16.80
2022-12-09T03:05:46.842Z,15.87
2022-12-09T03:08:22.567Z,16.97
2022-12-09T03:10:58.750Z,17.70
2022-12-09T03:13:42.401Z,15.90
2022-12-09T03:16:18.393Z,17.70
2022-12-09T03:18:52.776Z,19.33
2022-12-09T03:21:26.159Z,18.03
2022-12-09T03:23:58.513Z,19.20
2022-12-09T03:26:32.009Z,19.87
2022-12-09T03:29:05.527Z,19.93
2022-12-09T03:31:38.329Z,20.57
2022-12-09T03:34:11.631Z,20.40
2022-12-09T03:36:45.591Z,21.67
2022-12-09T03:39:19.311Z,20.43
2022-12-09T03:41:52.919Z,20.97
2022-12-09T03:44:26.741Z,21.00
2022-12-09T03:47:00.450Z,22.00
2022-12-09T03:49:31.602Z,22.33
2022-12-09T03:52:06.037Z,21.17
2022-12-09T03:54:39.910Z,22.60
2022-12-09T03:57:18.535Z,21.67
2022-12-09T03:59:48.528Z,22.73
2022-12-09T04:02:19.906Z,27.07
2022-12-09T04:04:51.231Z,24.30
2022-12-09T04:07:22.317Z,22.90
2022-12-09T04:09:53.049Z,19.90
2022-12-09T04:12:23.743Z,21.30
2022-12-09T04:14:54.437Z,20.47
2022-12-09T04:17:25.568Z,19.60
2022-12-09T04:19:56.370Z,18.83
2022-12-09T04:22:27.058Z,19.03
2022-12-09T04:24:57.989Z,19.90
2022-12-09T04:27:28.800Z,19.80
2022-12-09T04:29:59.397Z,18.47
2022-12-09T04:32:33.750Z,19.10
2022-12-09T04:35:04.723Z,19.43
2022-12-09T04:37:37.327Z,19.43
2022-12-09T04:40:11.311Z,17.70
2022-12-09T04:42:43.017Z,17.30
2022-12-09T04:45:14.244Z,18.00
2022-12-09T04:47:44.980Z,17.37
2022-12-09T04:50:16.399Z,16.63
2022-12-09T04:52:47.611Z,16.47
2022-12-09T04:55:19.826Z,16.63
2022-12-09T04:57:50.663Z,16.90
2022-12-09T05:00:23.779Z,16.50
2022-12-09T05:02:54.774Z,18.23
2022-12-09T05:05:25.687Z,16.90
2022-12-09T05:07:56.850Z,17.00
2022-12-09T05:10:28.024Z,17.87
2022-12-09T05:12:58.821Z,19.40
2022-12-09T05:15:29.770Z,19.20
2022-12-09T05:18:03.099Z,18.93
2022-12-09T05:20:33.906Z,19.53
2022-12-09T05:25:43.914Z,18.60
2022-12-09T05:28:15.009Z,19.07
2022-12-09T05:30:45.927Z,19.60
2022-12-09T05:33:17.496Z,19.10
2022-12-09T05:38:28.225Z,19.03
2022-12-09T05:41:01.323Z,19.93
2022-12-09T05:43:32.344Z,19.90
2022-12-09T05:46:04.457Z,20.33
2022-12-09T05:48:36.437Z,19.00
2022-12-09T05:51:10.723Z,18.47
2022-12-09T05:53:42.159Z,18.80
2022-12-09T05:56:15.322Z,19.73
2022-12-09T05:58:46.871Z,19.33
2022-12-09T06:01:20.078Z,20.50
2022-12-09T06:03:51.839Z,19.73
2022-12-09T06:09:05.232Z,16.70
2022-12-09T06:11:36.271Z,17.30
2022-12-09T06:14:08.918Z,17.43
2022-12-09T06:16:40.659Z,16.87
2022-12-09T06:19:13.827Z,16.57
2022-12-09T06:21:45.539Z,18.57
2022-12-09T06:24:16.633Z,18.40
2022-12-09T06:26:47.727Z,22.83
2022-12-09T06:29:18.537Z,17.67
2022-12-09T06:31:49.505Z,21.43
2022-12-09T06:34:20.928Z,21.27
2022-12-09T06:36:52.017Z,18.70
2022-12-09T06:39:22.897Z,17.60
2022-12-09T06:41:53.848Z,18.10
2022-12-09T06:44:24.638Z,18.77
2022-12-09T06:46:55.376Z,18.57
2022-12-09T06:49:26.922Z,17.73
2022-12-09T06:51:58.278Z,17.27
2022-12-09T06:54:29.690Z,15.83
2022-12-09T06:57:00.688Z,15.77
2022-12-09T06:59:31.643Z,15.73
2022-12-09T07:02:02.874Z,17.53
2022-12-09T07:04:34.212Z,15.23
2022-12-09T07:07:05.603Z,14.73
2022-12-09T07:09:36.955Z,15.57
2022-12-09T07:12:09.294Z,13.67
2022-12-09T07:14:40.059Z,15.73
2022-12-09T07:17:13.614Z,15.63
2022-12-09T07:19:44.829Z,15.60
2022-12-09T07:22:15.967Z,16.07
2022-12-09T07:24:47.522Z,15.40
2022-12-09T07:27:19.834Z,16.17
2022-12-09T07:29:51.156Z,16.20
2022-12-09T07:32:22.204Z,15.37
2022-12-09T07:34:53.341Z,17.17
2022-12-09T07:37:24.497Z,16.17
2022-12-09T07:39:55.379Z,15.93
2022-12-09T07:42:26.317Z,17.27
2022-12-09T07:44:57.144Z,18.50
2022-12-09T07:47:28.087Z,18.47
2022-12-09T07:50:02.959Z,17.97
2022-12-09T07:52:31.308Z,18.23
2022-12-09T07:55:02.373Z,17.00
2022-12-09T07:57:34.764Z,17.67
2022-12-09T08:00:08.741Z,20.50
2022-12-09T08:02:39.700Z,19.53
2022-12-09T08:05:12.211Z,19.53
2022-12-09T08:07:44.707Z,20.40
2022-12-09T08:10:16.424Z,20.10
2022-12-09T08:12:48.085Z,19.27
2022-12-09T08:15:20.846Z,19.03
2022-12-09T08:17:51.687Z,18.27
2022-12-09T08:20:28.792Z,19.23
2022-12-09T08:22:55.099Z,18.93
2022-12-09T08:25:25.933Z,18.20
2022-12-09T08:27:57.020Z,18.90
2022-12-09T08:30:28.498Z,19.23
2022-12-09T08:32:59.839Z,18.40
2022-12-09T08:35:30.693Z,17.07
2022-12-09T08:38:01.660Z,17.50
2022-12-09T08:40:33.007Z,17.57
2022-12-09T08:43:07.131Z,16.87
2022-12-09T08:45:41.044Z,18.43
2022-12-09T08:48:12.723Z,17.07
2022-12-09T08:50:44.060Z,16.53
2022-12-09T08:53:15.306Z,15.20
2022-12-09T08:55:46.292Z,17.20
2022-12-09T08:58:17.386Z,15.73
2022-12-09T09:00:48.375Z,16.50
2022-12-09T09:03:19.193Z,15.00
2022-12-09T09:05:50.492Z,15.70
2022-12-09T09:08:21.504Z,16.53
2022-12-09T09:10:52.871Z,16.17
2022-12-09T09:13:23.916Z,16.33
2022-12-09T09:15:54.861Z,16.90
2022-12-09T09:18:26.210Z,21.37
2022-12-09T09:20:59.729Z,22.10
2022-12-09T09:23:30.805Z,18.07
2022-12-09T09:26:01.818Z,18.87
2022-12-09T09:28:32.990Z,18.43
2022-12-09T09:31:05.304Z,18.70
2022-12-09T09:33:37.234Z,16.27
2022-12-09T09:36:11.649Z,16.17
2022-12-09T09:38:42.675Z,16.53
2022-12-09T09:41:23.299Z,16.23
2022-12-09T09:43:56.269Z,16.23
2022-12-09T09:46:32.493Z,15.90
2022-12-09T09:49:05.966Z,16.50
2022-12-09T09:51:38.563Z,18.47
2022-12-09T09:54:14.103Z,17.93
2022-12-09T09:56:50.458Z,18.00
2022-12-09T09:59:28.692Z,17.50
2022-12-09T10:02:04.376Z,17.27
2022-12-09T10:04:41.430Z,16.63
2022-12-09T10:07:16.049Z,16.37
2022-12-09T10:09:50.789Z,15.00
2022-12-09T10:12:24.955Z,15.10
2022-12-09T10:14:59.098Z,13.17
2022-12-09T10:17:33.387Z,12.03
2022-12-09T10:20:08.504Z,13.30
2022-12-09T10:22:44.797Z,13.07
2022-12-09T10:25:23.834Z,12.60
2022-12-09T10:27:59.688Z,11.87
2022-12-09T10:30:37.330Z,15.93
2022-12-09T10:33:03.058Z,15.53
2022-12-09T10:35:35.070Z,15.20
2022-12-09T10:38:11.082Z,15.20
2022-12-09T10:40:47.570Z,15.37
2022-12-09T10:43:38.759Z,15.23
2022-12-09T10:46:20.533Z,14.13
2022-12-09T10:48:47.496Z,13.33
2022-12-09T10:51:21.647Z,12.90
2022-12-09T10:53:55.918Z,12.83
2022-12-09T10:56:30.140Z,13.03
2022-12-09T10:59:14.564Z,12.60
2022-12-09T11:01:52.800Z,12.60
2022-12-09T11:04:28.138Z,11.67
2022-12-09T11:07:02.121Z,11.30
2022-12-09T11:09:35.811Z,11.73
2022-12-09T11:12:09.381Z,10.23
2022-12-09T11:14:42.750Z,9.90
2022-12-09T11:17:18.691Z,10.70
2022-12-09T11:19:52.439Z,9.83
2022-12-09T11:22:31.002Z,9.10
2022-12-09T11:25:15.942Z,8.33
2022-12-09T11:27:51.544Z,8.17
2022-12-09T11:30:57.423Z,9.00
2022-12-09T11:33:26.340Z,8.73
2022-12-09T11:36:01.880Z,9.57
2022-12-09T11:38:37.635Z,8.83
2022-12-09T11:41:21.966Z,8.57
2022-12-09T11:43:55.260Z,9.00
2022-12-09T11:46:29.231Z,8.00
2022-12-09T11:49:02.595Z,8.47
2022-12-09T11:51:35.919Z,8.47
2022-12-09T11:54:09.882Z,8.73
2022-12-09T11:56:42.564Z,9.77
2022-12-09T11:59:15.209Z,8.40
2022-12-09T12:01:51.793Z,8.30
2022-12-09T12:04:25.404Z,8.00
2022-12-09T12:06:59.231Z,7.53
2022-12-09T12:09:33.319Z,7.57
2022-12-09T12:12:08.674Z,6.37
2022-12-09T12:14:42.495Z,6.67
2022-12-09T12:17:18.835Z,5.80
2022-12-09T12:19:51.780Z,5.47
2022-12-09T12:22:56.573Z,5.00
2022-12-09T12:25:34.074Z,5.37
2022-12-09T12:28:31.827Z,6.50
2022-12-09T12:31:05.752Z,6.10
2022-12-09T12:36:24.720Z,7.33
2022-12-09T12:39:04.165Z,7.70
2022-12-09T12:41:39.877Z,7.90
2022-12-09T12:44:50.991Z,8.90
2022-12-09T12:47:24.404Z,9.00
2022-12-09T12:50:23.907Z,9.13
2022-12-09T12:52:58.313Z,9.23
2022-12-09T12:55:52.682Z,8.77
2022-12-09T12:58:32.811Z,10.27
2022-12-09T13:01:07.036Z,9.87
2022-12-09T13:03:42.457Z,9.60
2022-12-09T13:06:16.716Z,9.57
2022-12-09T13:08:50.604Z,10.40
2022-12-09T13:11:23.726Z,10.07
2022-12-09T13:13:57.473Z,10.30
2022-12-09T13:16:31.855Z,8.97
2022-12-09T13:19:06.255Z,9.20
2022-12-09T13:21:37.756Z,9.67
2022-12-09T13:24:13.782Z,9.83
2022-12-09T13:26:48.098Z,10.30
2022-12-09T13:29:31.462Z,11.07
2022-12-09T13:32:06.414Z,11.87
2022-12-09T13:34:40.764Z,12.07
2022-12-09T13:37:34.360Z,12.17
2022-12-09T13:40:09.188Z,11.07
2022-12-09T13:43:01.733Z,10.30
2022-12-09T13:45:36.742Z,10.40
2022-12-09T13:48:16.231Z,11.13
2022-12-09T13:50:45.479Z,9.83
2022-12-09T13:53:28.299Z,8.73
2022-12-09T13:56:01.317Z,8.43
2022-12-09T13:59:04.030Z,8.13
2022-12-09T14:01:38.547Z,7.13
2022-12-09T14:04:16.136Z,7.03
2022-12-09T14:06:56.254Z,6.57
2022-12-09T14:09:33.330Z,6.67
2022-12-09T14:12:06.586Z,7.83
2022-12-09T14:14:51.790Z,7.53
2022-12-09T14:17:42.403Z,8.63
2022-12-09T14:20:22.849Z,9.20
2022-12-09T14:23:18.985Z,9.80
2022-12-09T14:26:09.742Z,9.77
2022-12-09T14:28:52.943Z,10.50
2022-12-09T14:31:50.301Z,9.40
2022-12-09T14:37:45.064Z,9.57
2022-12-09T14:40:30.472Z,9.20
2022-12-09T14:43:06.122Z,9.00
2022-12-09T14:45:39.973Z,9.50
2022-12-09T14:48:14.129Z,9.10
2022-12-09T14:50:45.107Z,9.53
2022-12-09T14:55:58.945Z,9.53
2022-12-09T14:58:30.636Z,8.93
2022-12-09T15:01:06.724Z,8.20
2022-12-09T15:03:45.247Z,10.53
2022-12-09T15:06:16.468Z,8.67
2022-12-09T15:08:47.879Z,9.47
2022-12-09T15:11:22.240Z,8.90
2022-12-09T15:13:55.958Z,8.27
2022-12-09T15:16:28.941Z,8.53
2022-12-09T15:18:59.984Z,9.23
2022-12-09T15:21:33.212Z,9.53
2022-12-09T15:24:04.559Z,9.10
2022-12-09T15:26:36.081Z,8.93
2022-12-09T15:29:06.855Z,8.50
2022-12-09T15:31:39.315Z,8.30
2022-12-09T15:34:15.021Z,9.03
2022-12-09T15:36:49.738Z,8.63
2022-12-09T15:39:24.898Z,8.90
2022-12-09T15:42:08.220Z,7.77
2022-12-09T15:44:45.241Z,8.80
2022-12-09T15:47:20.287Z,9.03
2022-12-09T15:49:54.707Z,9.00
2022-12-09T15:52:28.739Z,10.00
2022-12-09T15:55:03.785Z,9.13
2022-12-09T15:57:35.427Z,8.17
2022-12-09T16:00:08.960Z,9.03
2022-12-09T16:02:42.069Z,10.03
2022-12-09T16:05:13.560Z,9.57
2022-12-09T16:07:57.344Z,10.63
2022-12-09T16:10:29.721Z,12.97
2022-12-09T16:13:12.675Z,8.90
2022-12-09T16:15:51.097Z,9.30
2022-12-09T16:18:26.219Z,9.50
2022-12-09T16:21:26.543Z,8.93
2022-12-09T16:24:00.761Z,7.50
2022-12-09T16:26:35.002Z,7.97
2022-12-09T16:29:08.114Z,7.93
2022-12-09T16:31:39.010Z,8.03
2022-12-09T16:37:03.984Z,8.20
2022-12-09T16:39:38.688Z,7.77
2022-12-09T16:42:22.976Z,8.23
2022-12-09T16:44:54.966Z,8.27
2022-12-09T16:47:28.030Z,7.47
2022-12-09T16:49:58.787Z,8.03
2022-12-09T16:52:30.573Z,6.60
2022-12-09T16:55:02.452Z,6.37
2022-12-09T16:57:33.254Z,6.63
2022-12-09T17:00:04.338Z,16.27
2022-12-09T17:02:38.064Z,10.37
2022-12-09T17:05:11.254Z,17.53
2022-12-09T17:07:42.073Z,20.83
2022-12-09T17:12:53.807Z,13.27
2022-12-09T17:15:24.801Z,13.40
2022-12-09T17:17:55.685Z,21.17
2022-12-09T17:20:26.795Z,6.90
2022-12-09T17:22:57.561Z,12.83
2022-12-09T17:25:29.979Z,9.77
2022-12-09T17:28:02.151Z,20.07
2022-12-09T17:30:33.266Z,18.07
2022-12-09T17:33:04.031Z,6.30
2022-12-09T17:35:39.770Z,24.13
2022-12-09T17:38:10.709Z,5.77
2022-12-09T17:40:41.441Z,5.47
2022-12-09T17:43:12.451Z,4.90
2022-12-09T17:45:44.262Z,5.37
2022-12-09T17:48:15.044Z,5.27
2022-12-09T17:50:45.773Z,4.50
2022-12-09T17:53:16.666Z,4.97
2022-12-09T17:55:47.497Z,4.60
2022-12-09T17:58:18.758Z,4.40
2022-12-09T18:00:50.061Z,4.53
2022-12-09T18:03:39.308Z,4.60
2022-12-09T18:05:53.252Z,4.50
2022-12-09T18:08:24.062Z,4.20
2022-12-09T18:10:54.745Z,4.03
2022-12-09T18:13:25.611Z,4.20
2022-12-09T18:15:57.301Z,3.77
2022-12-09T18:18:28.915Z,6.20
2022-12-09T18:21:03.089Z,4.80
2022-12-09T18:23:33.735Z,4.60
2022-12-09T18:26:07.666Z,4.43
2022-12-09T18:28:39.909Z,4.93
2022-12-09T18:31:12.216Z,5.77
2022-12-09T18:33:43.523Z,5.43
2022-12-09T18:36:16.061Z,5.07
2022-12-09T18:38:47.802Z,5.50
2022-12-09T18:41:20.381Z,5.30
2022-12-09T18:43:52.705Z,4.80
2022-12-09T18:46:26.307Z,4.60
2022-12-09T18:49:16.408Z,4.83
2022-12-09T18:54:29.485Z,4.50
2022-12-09T18:57:01.867Z,5.13
2022-12-09T18:59:33.109Z,5.63
2022-12-09T19:02:04.141Z,4.87
2022-12-09T19:04:35.423Z,5.07
2022-12-09T19:07:06.647Z,8.60
2022-12-09T19:09:37.957Z,5.70
2022-12-09T19:12:45.265Z,5.17
2022-12-09T19:14:43.478Z,4.90
2022-12-09T19:17:15.394Z,4.20
2022-12-09T19:19:47.414Z,4.60
2022-12-09T19:22:18.427Z,5.43
2022-12-09T19:24:49.302Z,5.53
2022-12-09T19:27:20.347Z,5.20
2022-12-09T19:29:51.062Z,4.47
2022-12-09T19:32:51.302Z,5.10
2022-12-09T19:34:54.714Z,6.40
2022-12-09T19:37:25.870Z,5.57
2022-12-09T19:39:56.634Z,7.97
2022-12-09T19:42:27.316Z,6.17
2022-12-09T19:45:03.644Z,6.63
2022-12-09T19:47:31.276Z,6.33
2022-12-09T19:50:02.828Z,5.87
2022-12-09T19:52:34.535Z,6.30
2022-12-09T19:55:08.928Z,6.20
2022-12-09T19:57:40.162Z,5.97
2022-12-09T20:00:14.269Z,6.40
2022-12-09T20:02:45.294Z,5.77
2022-12-09T20:05:16.998Z,6.40
2022-12-09T20:07:47.979Z,6.07
2022-12-09T20:10:19.671Z,6.67
2022-12-09T20:12:50.524Z,6.63
2022-12-09T20:15:21.494Z,6.57
2022-12-09T20:17:52.384Z,6.43
2022-12-09T20:20:23.739Z,6.50
2022-12-09T20:22:54.631Z,6.40
2022-12-09T20:25:25.383Z,6.93
2022-12-09T20:27:56.707Z,7.73
2022-12-09T20:30:30.683Z,7.33
2022-12-09T20:33:02.151Z,8.33
2022-12-09T20:35:33.767Z,9.23
2022-12-09T20:38:04.550Z,10.23
2022-12-09T20:40:40.684Z,8.20
2022-12-09T20:43:08.829Z,7.70
2022-12-09T20:45:41.899Z,7.27
2022-12-09T20:48:13.198Z,7.50
2022-12-09T20:50:43.955Z,8.67
2022-12-09T20:53:14.581Z,7.57
2022-12-09T20:55:45.416Z,7.80
2022-12-09T20:58:16.044Z,8.73
2022-12-09T21:00:46.639Z,9.13
2022-12-09T21:03:17.469Z,8.83
2022-12-09T21:05:48.328Z,9.90
2022-12-09T21:08:18.999Z,9.07
2022-12-09T21:10:49.858Z,9.83
2022-12-09T21:13:20.610Z,10.23
2022-12-09T21:15:51.327Z,9.80
2022-12-09T21:18:22.082Z,10.70
2022-12-09T21:20:52.649Z,9.87
2022-12-09T21:23:33.916Z,10.43
2022-12-09T21:25:56.321Z,9.43
2022-12-09T21:28:26.896Z,9.33
2022-12-09T21:30:57.476Z,9.13
2022-12-09T21:33:28.185Z,8.40
2022-12-09T21:35:59.013Z,7.60
2022-12-09T21:38:29.766Z,7.80
2022-12-09T21:41:04.688Z,9.33
2022-12-09T21:43:36.034Z,9.43
2022-12-09T21:46:08.118Z,9.27
2022-12-09T21:48:38.822Z,8.43
2022-12-09T21:51:11.456Z,7.10
2022-12-09T21:53:42.851Z,7.63
2022-12-09T21:56:15.913Z,7.87
2022-12-09T21:58:48.029Z,6.63
2022-12-09T22:01:20.822Z,7.90
2022-12-09T22:03:51.777Z,7.43
2022-12-09T22:06:22.919Z,7.93
2022-12-09T22:08:54.018Z,8.00
2022-12-09T22:11:26.234Z,7.43
2022-12-09T22:13:59.259Z,8.07
2022-12-09T22:16:32.399Z,8.53
2022-12-09T22:19:05.087Z,7.80
2022-12-09T22:21:36.858Z,8.03
2022-12-09T22:24:09.643Z,8.67
2022-12-09T22:26:42.452Z,8.87
2022-12-09T22:29:15.275Z,9.53
2022-12-09T22:31:46.936Z,9.60
2022-12-09T22:34:19.895Z,8.70
2022-12-09T22:36:51.272Z,9.20
2022-12-09T22:39:23.098Z,8.60
2022-12-09T22:41:53.782Z,8.00
2022-12-09T22:44:24.458Z,8.93
2022-12-09T22:46:55.096Z,8.47
2022-12-09T22:49:25.730Z,7.87
2022-12-09T22:52:00.429Z,8.50
2022-12-09T22:54:28.795Z,8.63
2022-12-09T22:56:59.508Z,10.47
2022-12-09T22:59:30.959Z,9.40
2022-12-09T23:02:01.714Z,10.23
2022-12-09T23:04:32.486Z,10.10
2022-12-09T23:07:03.184Z,9.73
2022-12-09T23:09:33.797Z,9.23
2022-12-09T23:12:04.633Z,7.23
2022-12-09T23:14:36.496Z,7.47
2022-12-09T23:17:07.083Z,7.57
2022-12-09T23:19:37.813Z,6.60
2022-12-09T23:22:08.939Z,7.07
2022-12-09T23:24:40.024Z,6.33
2022-12-09T23:27:10.616Z,6.43
2022-12-09T23:29:41.603Z,6.70
2022-12-09T23:32:12.272Z,6.40
2022-12-09T23:34:43.278Z,6.60
2022-12-09T23:37:14.531Z,8.70
2022-12-09T23:39:45.097Z,8.17
2022-12-09T23:42:15.879Z,9.30
2022-12-09T23:44:47.458Z,8.67
2022-12-09T23:47:18.096Z,9.50
2022-12-09T23:49:48.771Z,8.67
2022-12-09T23:52:19.348Z,7.97
2022-12-09T23:54:50.044Z,8.80
2022-12-09T23:57:20.751Z,9.53
2022-12-09T23:59:51.310Z,9.80
